Agency Village, SD

3:24 AM CDT on October 02, 2014 (GMT -0500)
RAWS MARSHALL CO SD US | Change Station
CLOSE
Current Station
Personal Weather Station
Location: Lake City, SD
Elevation: 2009 ft
Nearby Weather Stations

Elev 2009 ft 45.80 °N, 97.45 °W | Updated 25 minutes ago

Partly Cloudy
Partly Cloudy
50 °F
Feels Like 47 °F
N
8
Wind Variable Wind from WNW
Gusts 11.0 mph

Today
High -- | Low -- °F
--% Chance of Precip.
Yesterday
High -- | Low -- °F
Precip. -- in
7:27 AM 7:06 PM
First Quarter, 56% visible
Pressure 29.86 in
Visibility 10.0 miles
Clouds Clear
Windchill 47 °F
Dew Point 49 °F
Humidity 97%
Rainfall 0.00 in
Snow Depth Not available.
UV 0 out of 12
Pollen 2.50 out of 12
Air Quality Not available.
Flu Activity Not available.
METAR KETH 020816Z AUTO 27004KT 10SM CLR 10/08 A2986 RMK AO2

More Conditions Fewer Conditions

Pressure 29.86 in
Visibility 10.0 miles
Clouds Clear
Windchill 47 °F
Dew Point 49 °F
Humidity 97%
Rainfall 0.00 in
Snow Depth Not available.
UV 0 out of 12
Pollen 2.50 out of 12
Air Quality Not available.
Flu Activity Not available.
METAR KETH 020816Z AUTO 27004KT 10SM CLR 10/08 A2986 RMK AO2

More Conditions Fewer Conditions

10-Day Weather Forecast

Almanac

Astronomy

Oct. 02, 2014 Rise Set
Actual Time 7:27 AM CDT 7:06 PM CDT
Civil Twilight 6:58 AM CDT 7:35 PM CDT
Nautical Twilight 6:23 AM CDT 8:10 PM CDT
Astronomical Twilight 5:48 AM CDT 8:45 PM CDT
Moon 3:29 PM CDT 12:29 AM CDT
Length of Visible Light 12h 37m
Length of Day
11h 38m
Tomorrow will be 3m 11s shorter.
First Quarter, 56% of the Moon is Illuminated
Today
First Quarter
Oct 8
Full
Oct 15
Last Quarter
Oct 23
New
Oct 30
First Quarter

Today's Extremes

State Highs State Lows

Community

WunderPhotos

Upload Photos

1,758,196 photos uploaded!

WunderBlogs® & News

By Dr. Jeff Masters
Director of Meteorology, Weather Underground
By Kari Strenfel
Meteorologist, Weather Underground
By Christopher C. Burt
Weather Historian, Weather Underground
October 2, 2014
October 2, 2014
October 2, 2014

Nearby

Snow Depth

Station Depth Elevation
North Rapid Creek 0 in 6130 ft
Blind Park 1 in 6890 ft

Earthquake Activity

City Distance Mag. Time & Date
No recent earthquake activity has been reported nearby.
Minimum magnitude displayed is 2.5.

Coastal Water Temperatures

Place Temperature
No Stations Reporting

Nearby Weather Stations